Time;durP1;ratioP1;P1;durP2;ratioP2;P2;SDS_P1;SDS_P2;PMS_P1;PMS_P2;Temp;Humidity;BMP_temperature;BMP_pressure;BME280_temperature;BME280_humidity;BME280_pressure;Samples;Min_cycle;Max_cycle;Signal;HPM_P1;HPM_P2
2022/05/11 00:01:39;;;;;;;15.77;6.93;;;18.20;78.50;;;;;;4991220;28;20148;-73
2022/05/11 00:04:07;;;;;;;14.70;6.35;;;18.20;79.00;;;;;;4990868;28;20077;-73
2022/05/11 00:06:34;;;;;;;10.50;5.78;;;18.20;79.20;;;;;;4990731;28;20039;-73
2022/05/11 00:09:00;;;;;;;12.27;6.20;;;18.20;78.90;;;;;;4991356;28;20026;-73
2022/05/11 00:11:27;;;;;;;11.32;5.60;;;18.20;78.80;;;;;;4991315;28;20461;-73
2022/05/11 00:13:54;;;;;;;13.27;6.20;;;18.20;78.60;;;;;;4990555;28;20430;-73
2022/05/11 00:16:20;;;;;;;12.43;5.80;;;18.10;78.70;;;;;;4991456;28;20037;-73
2022/05/11 00:18:45;;;;;;;12.75;5.45;;;18.20;79.00;;;;;;4991104;28;20030;-73
2022/05/11 00:21:12;;;;;;;13.30;5.50;;;18.10;78.70;;;;;;4990549;28;20625;-73
2022/05/11 00:23:38;;;;;;;14.95;6.50;;;18.10;79.00;;;;;;4991779;28;20030;-73
2022/05/11 00:26:05;;;;;;;9.23;5.78;;;18.10;78.70;;;;;;4994496;28;20042;-73
2022/05/11 00:28:31;;;;;;;9.45;5.50;;;18.10;79.40;;;;;;4993737;28;20030;-73
2022/05/11 00:30:57;;;;;;;10.27;4.53;;;18.10;78.50;;;;;;4994256;28;20121;-73
2022/05/11 00:33:22;;;;;;;9.65;4.03;;;18.00;78.00;;;;;;4994816;28;20117;-73
2022/05/11 00:35:53;;;;;;;12.52;4.65;;;18.00;77.60;;;;;;4993716;28;20038;-73
2022/05/11 00:38:21;;;;;;;18.55;6.47;;;17.90;78.00;;;;;;4994664;28;20030;-73
2022/05/11 00:40:51;;;;;;;14.98;4.95;;;17.90;78.60;;;;;;4994238;28;20132;-73
2022/05/11 00:43:36;;;;;;;15.93;5.80;;;17.90;78.40;;;;;;4981501;28;20026;-73
2022/05/11 00:46:14;;;;;;;15.27;4.88;;;17.90;78.70;;;;;;4994301;28;20160;-73
2022/05/11 00:51:34;;;;;;;15.52;5.32;;;17.80;78.90;;;;;;4982881;28;20031;-73
2022/05/11 00:54:02;;;;;;;9.32;5.03;;;17.80;79.10;;;;;;4993759;28;20165;-73
2022/05/11 00:56:32;;;;;;;8.52;5.28;;;17.70;79.20;;;;;;4993505;28;20027;-73
2022/05/11 00:59:06;;;;;;;15.15;4.85;;;17.80;79.40;;;;;;4993929;28;20031;-73
2022/05/11 01:01:32;;;;;;;11.38;5.18;;;17.70;79.70;;;;;;4994235;28;20042;-73
2022/05/11 01:04:05;;;;;;;9.82;4.63;;;17.70;79.70;;;;;;4992473;28;20096;-73
2022/05/11 01:06:32;;;;;;;11.40;5.68;;;17.70;79.80;;;;;;4990016;28;20030;-73
2022/05/11 01:09:00;;;;;;;9.13;5.05;;;17.80;79.70;;;;;;4993574;28;20033;-74
2022/05/11 01:11:26;;;;;;;11.68;5.10;;;17.70;79.80;;;;;;4993070;28;20053;-73
2022/05/11 01:13:53;;;;;;;13.05;5.22;;;17.70;80.00;;;;;;4993421;28;20037;-73
2022/05/11 01:16:18;;;;;;;10.68;5.20;;;17.70;80.10;;;;;;4993712;28;20041;-73
2022/05/11 01:18:44;;;;;;;13.50;5.43;;;17.70;80.00;;;;;;4992818;28;20034;-73
2022/05/11 01:21:10;;;;;;;10.25;4.65;;;17.60;80.10;;;;;;4992186;28;20165;-73
2022/05/11 01:23:45;;;;;;;12.13;5.00;;;17.60;79.80;;;;;;4992402;28;20116;-74
2022/05/11 01:26:15;;;;;;;11.88;5.47;;;17.60;79.90;;;;;;4992916;28;20145;-74
2022/05/11 01:28:43;;;;;;;14.25;5.53;;;17.60;80.00;;;;;;4993289;28;20129;-74
2022/05/11 01:31:15;;;;;;;8.23;4.18;;;17.60;80.00;;;;;;4992577;28;20042;-73
2022/05/11 01:33:47;;;;;;;12.75;5.30;;;17.60;79.80;;;;;;4993034;28;20030;-73
2022/05/11 01:36:26;;;;;;;12.68;6.32;;;17.60;80.50;;;;;;4993496;28;20027;-72
2022/05/11 01:38:57;;;;;;;10.32;4.85;;;17.60;80.50;;;;;;4992256;28;20034;-73
2022/05/11 01:41:38;;;;;;;11.85;5.28;;;17.50;80.50;;;;;;4992923;28;20601;-73
2022/05/11 01:44:07;;;;;;;10.88;4.88;;;17.50;80.50;;;;;;4993275;28;20041;-73
2022/05/11 01:46:34;;;;;;;13.50;5.10;;;17.50;80.10;;;;;;4992721;28;20121;-73
2022/05/11 01:49:00;;;;;;;7.95;4.50;;;17.50;80.30;;;;;;4992758;28;20457;-73
2022/05/11 01:51:26;;;;;;;4.85;2.33;;;17.50;80.20;;;;;;4993104;28;20117;-73
2022/05/11 01:53:51;;;;;;;9.70;3.95;;;17.40;79.60;;;;;;4992399;28;20031;-73
2022/05/11 01:56:20;;;;;;;10.23;4.65;;;17.40;80.10;;;;;;4992827;28;20026;-73
2022/05/11 01:58:46;;;;;;;5.60;2.97;;;17.40;80.90;;;;;;4992041;28;20041;-73
2022/05/11 02:01:15;;;;;;;3.55;1.92;;;17.30;80.60;;;;;;4992915;28;20038;-73
2022/05/11 02:03:41;;;;;;;14.18;4.55;;;17.30;80.30;;;;;;4992300;28;20409;-73
2022/05/11 02:08:51;;;;;;;10.20;4.97;;;17.30;81.40;;;;;;4992099;28;20120;-73
2022/05/11 02:11:18;;;;;;;9.30;4.10;;;17.30;81.40;;;;;;4992856;28;20074;-73
2022/05/11 02:13:47;;;;;;;8.48;4.20;;;17.30;81.50;;;;;;4991380;28;20117;-73
2022/05/11 02:16:13;;;;;;;11.65;5.10;;;17.30;81.70;;;;;;4992461;28;20026;-73
2022/05/11 02:18:39;;;;;;;10.25;5.28;;;17.30;82.00;;;;;;4992381;28;20034;-73
2022/05/11 02:21:09;;;;;;;9.82;5.28;;;17.30;82.10;;;;;;4991983;28;20050;-73
2022/05/11 02:23:36;;;;;;;9.07;5.40;;;17.30;82.30;;;;;;4991958;28;20034;-73
2022/05/11 02:26:03;;;;;;;9.05;5.70;;;17.30;82.50;;;;;;4992585;28;20030;-73
2022/05/11 02:28:29;;;;;;;9.57;4.88;;;17.30;82.50;;;;;;4991685;28;20022;-73
2022/05/11 02:31:00;;;;;;;14.50;5.18;;;17.30;82.30;;;;;;4991974;28;20545;-73
2022/05/11 02:33:26;;;;;;;13.80;5.40;;;17.30;82.50;;;;;;4992099;28;20073;-73
2022/05/11 02:35:53;;;;;;;12.30;4.82;;;17.30;82.30;;;;;;4991384;28;20474;-73
2022/05/11 02:38:22;;;;;;;7.97;4.43;;;17.30;82.60;;;;;;4991935;28;20022;-73
2022/05/11 02:40:48;;;;;;;13.13;5.88;;;17.30;82.00;;;;;;4991977;28;20076;-73
2022/05/11 02:43:14;;;;;;;9.82;4.55;;;17.30;82.10;;;;;;4991178;28;20058;-73
2022/05/11 02:45:41;;;;;;;10.65;5.50;;;17.30;82.00;;;;;;4991655;28;20519;-73
2022/05/11 02:48:08;;;;;;;8.18;4.75;;;17.30;82.00;;;;;;4990974;28;20382;-75
2022/05/11 02:50:39;;;;;;;9.50;4.47;;;17.30;81.80;;;;;;4989808;28;20045;-75
2022/05/11 02:53:10;;;;;;;10.23;4.47;;;17.30;81.80;;;;;;4992094;28;20042;-73
2022/05/11 02:55:37;;;;;;;10.00;5.20;;;17.20;81.80;;;;;;4991159;28;20034;-73
2022/05/11 02:58:04;;;;;;;10.95;4.80;;;17.20;81.80;;;;;;4991665;28;20073;-73
2022/05/11 03:00:31;;;;;;;10.25;4.90;;;17.20;81.80;;;;;;4991566;28;20093;-73
2022/05/11 03:02:58;;;;;;;15.60;4.43;;;17.20;81.90;;;;;;4990599;28;20030;-73
2022/05/11 03:05:24;;;;;;;9.27;4.70;;;17.20;81.90;;;;;;4991594;28;20042;-73
2022/05/11 03:07:50;;;;;;;5.72;2.83;;;17.20;81.80;;;;;;4991615;28;20036;-73
2022/05/11 03:10:16;;;;;;;11.13;4.80;;;17.10;81.60;;;;;;4990915;28;20069;-73
2022/05/11 03:12:42;;;;;;;7.85;4.22;;;17.10;82.10;;;;;;4991569;28;20070;-73
2022/05/11 03:15:11;;;;;;;11.27;3.95;;;17.10;82.10;;;;;;4991186;28;20482;-73
2022/05/11 03:17:37;;;;;;;10.65;4.35;;;17.10;82.10;;;;;;4990611;28;20113;-73
2022/05/11 03:20:07;;;;;;;11.23;5.78;;;17.00;82.00;;;;;;4991532;28;20152;-73
2022/05/11 03:22:33;;;;;;;8.25;3.00;;;17.00;82.50;;;;;;4991523;28;20038;-73
2022/05/11 03:24:59;;;;;;;6.38;3.42;;;17.00;82.20;;;;;;4990740;28;20027;-73
2022/05/11 03:27:25;;;;;;;4.97;2.60;;;17.00;82.30;;;;;;4991845;28;20524;-73
2022/05/11 03:29:51;;;;;;;4.55;2.50;;;17.00;82.20;;;;;;4991317;28;20088;-73
2022/05/11 03:35:03;;;;;;;7.70;4.20;;;16.90;82.60;;;;;;4990298;28;20032;-73
2022/05/11 03:37:33;;;;;;;6.75;4.03;;;16.90;82.80;;;;;;4989904;28;20029;-78
2022/05/11 03:40:00;;;;;;;5.18;2.65;;;16.90;83.50;;;;;;4990508;28;20038;-75
2022/05/11 03:42:30;;;;;;;10.52;3.38;;;16.90;82.60;;;;;;4990363;28;20081;-75
2022/05/11 03:45:03;;;;;;;11.95;3.95;;;16.90;82.80;;;;;;4989549;28;20049;-75
2022/05/11 03:47:29;;;;;;;15.25;4.97;;;16.80;83.00;;;;;;4990531;28;20045;-75
2022/05/11 03:49:54;;;;;;;6.95;3.05;;;16.80;83.20;;;;;;4991039;28;20026;-74
2022/05/11 03:52:22;;;;;;;3.92;2.25;;;16.80;83.00;;;;;;4989466;28;20474;-72
2022/05/11 03:54:48;;;;;;;7.20;3.47;;;16.80;82.90;;;;;;4990212;28;20547;-76
2022/05/11 03:57:14;;;;;;;6.95;4.03;;;16.80;83.30;;;;;;4989897;28;20038;-73
2022/05/11 03:59:39;;;;;;;4.70;2.55;;;16.80;83.40;;;;;;4991904;28;20022;-73
2022/05/11 04:02:05;;;;;;;9.95;3.00;;;16.80;83.20;;;;;;4994653;28;20054;-73
2022/05/11 04:04:31;;;;;;;10.32;2.65;;;16.80;83.60;;;;;;4994658;28;20141;-73
2022/05/11 04:06:56;;;;;;;2.40;1.67;;;16.70;83.70;;;;;;4993823;28;20046;-73
2022/05/11 04:09:22;;;;;;;9.35;3.97;;;16.70;83.60;;;;;;4994450;28;20030;-73
2022/05/11 04:11:48;;;;;;;6.90;2.63;;;16.70;83.90;;;;;;4994483;28;20077;-73
2022/05/11 04:14:13;;;;;;;7.18;2.40;;;16.70;83.90;;;;;;4993310;28;20099;-78
2022/05/11 04:16:39;;;;;;;10.45;4.20;;;16.60;83.90;;;;;;4994456;28;20042;-79
2022/05/11 04:19:05;;;;;;;15.40;3.13;;;16.60;84.30;;;;;;4994261;28;20049;-79
2022/05/11 04:21:31;;;;;;;9.05;3.08;;;16.60;84.50;;;;;;4993507;28;20145;-76
2022/05/11 04:23:56;;;;;;;4.03;1.35;;;16.60;84.60;;;;;;4994705;28;20027;-75
2022/05/11 04:26:22;;;;;;;11.80;2.80;;;16.60;84.20;;;;;;4993824;28;20393;-75
2022/05/11 04:28:49;;;;;;;7.45;4.18;;;16.60;84.40;;;;;;4994690;28;20046;-75
2022/05/11 04:31:18;;;;;;;5.75;2.55;;;16.60;84.70;;;;;;4994295;28;20430;-76
2022/05/11 04:33:43;;;;;;;6.15;2.60;;;16.60;84.60;;;;;;4993935;28;20347;-75
2022/05/11 04:36:12;;;;;;;5.70;1.77;;;16.60;84.60;;;;;;4994514;28;20125;-76
2022/05/11 04:38:37;;;;;;;7.78;2.88;;;16.60;84.70;;;;;;4992902;28;20034;-74
2022/05/11 04:41:03;;;;;;;5.28;1.95;;;16.50;84.90;;;;;;4992414;28;20100;-77
2022/05/11 04:43:30;;;;;;;9.13;3.50;;;16.50;84.90;;;;;;4994329;28;20030;-74
2022/05/11 04:45:57;;;;;;;8.73;3.05;;;16.50;85.20;;;;;;4994163;28;20039;-72
2022/05/11 04:48:23;;;;;;;4.72;2.22;;;16.60;85.30;;;;;;4991706;28;20030;-76
2022/05/11 04:50:49;;;;;;;4.25;1.92;;;16.50;85.30;;;;;;4992696;28;20440;-76
2022/05/11 04:53:16;;;;;;;5.32;2.55;;;16.50;85.30;;;;;;4991639;28;20034;-76
2022/05/11 04:55:43;;;;;;;7.10;2.55;;;16.50;85.30;;;;;;4990961;28;20038;-75
2022/05/11 04:58:09;;;;;;;7.88;3.60;;;16.50;85.70;;;;;;4992306;28;20117;-76
2022/05/11 05:00:35;;;;;;;6.68;2.78;;;16.50;85.90;;;;;;4991730;28;20129;-76
2022/05/11 05:03:05;;;;;;;5.03;1.92;;;16.50;85.70;;;;;;4991003;28;20101;-79
2022/05/11 05:05:31;;;;;;;4.60;2.67;;;16.50;85.60;;;;;;4992332;28;20031;-71
2022/05/11 05:07:56;;;;;;;3.92;2.20;;;16.50;85.80;;;;;;4993195;28;20429;-72
2022/05/11 05:10:22;;;;;;;7.25;2.92;;;16.50;85.80;;;;;;4993962;28;20027;-74
2022/05/11 05:12:48;;;;;;;11.05;2.25;;;16.50;85.80;;;;;;4990786;28;20409;-69
2022/05/11 05:15:16;;;;;;;6.10;2.05;;;16.50;85.80;;;;;;4991598;28;20045;-68
2022/05/11 05:17:41;;;;;;;3.05;1.83;;;16.50;85.90;;;;;;4992646;28;20034;-72
2022/05/11 05:20:08;;;;;;;5.22;2.53;;;16.50;85.90;;;;;;4991997;28;20034;-72
2022/05/11 05:22:38;;;;;;;9.60;3.42;;;16.50;86.10;;;;;;4989273;28;20041;-74
2022/05/11 05:25:04;;;;;;;7.47;2.97;;;16.60;86.40;;;;;;4990604;28;20203;-72
2022/05/11 05:27:30;;;;;;;10.57;3.63;;;16.50;86.20;;;;;;4990272;28;20041;-81
2022/05/11 05:32:43;;;;;;;4.80;2.58;;;16.50;86.20;;;;;;4989586;28;20030;-80
2022/05/11 05:35:11;;;;;;;2.17;1.25;;;16.50;86.30;;;;;;4990420;28;20367;-81
2022/05/11 05:37:38;;;;;;;5.75;2.58;;;16.50;86.40;;;;;;4991485;28;20382;-79
2022/05/11 05:40:05;;;;;;;13.82;3.75;;;16.50;86.50;;;;;;4988193;28;20537;-75
2022/05/11 05:42:36;;;;;;;12.95;3.40;;;16.50;86.70;;;;;;4989273;28;20034;-76
2022/05/11 05:45:02;;;;;;;7.60;2.20;;;16.50;86.70;;;;;;4989098;28;20057;-80
2022/05/11 05:47:28;;;;;;;4.03;2.15;;;16.50;86.40;;;;;;4990259;28;20085;-78
2022/05/11 05:49:55;;;;;;;10.88;1.90;;;16.50;86.40;;;;;;4991072;28;20610;-80
2022/05/11 05:52:23;;;;;;;3.33;2.05;;;16.50;86.40;;;;;;4991202;28;20093;-72
2022/05/11 05:54:50;;;;;;;10.68;3.03;;;16.50;86.40;;;;;;4991805;28;20034;-72
2022/05/11 05:57:17;;;;;;;4.53;2.03;;;16.50;86.50;;;;;;4992673;28;20034;-72
2022/05/11 05:59:43;;;;;;;6.43;2.55;;;16.50;86.40;;;;;;4991725;28;20501;-73
2022/05/11 06:02:13;;;;;;;9.05;2.20;;;16.60;86.50;;;;;;4991897;28;20486;-72
2022/05/11 06:04:43;;;;;;;9.02;3.30;;;16.60;86.40;;;;;;4992392;28;20046;-72
2022/05/11 06:07:11;;;;;;;2.63;1.45;;;16.60;86.60;;;;;;4992282;28;20084;-72
2022/05/11 06:09:38;;;;;;;6.35;2.13;;;16.60;86.30;;;;;;4992039;28;20490;-73
2022/05/11 06:12:05;;;;;;;13.07;3.47;;;16.60;86.40;;;;;;4991561;28;20026;-73
2022/05/11 06:14:31;;;;;;;8.23;2.80;;;16.60;86.80;;;;;;4992241;28;20038;-72
2022/05/11 06:16:59;;;;;;;6.30;1.83;;;16.70;86.80;;;;;;4992019;28;20037;-72
2022/05/11 06:19:26;;;;;;;17.45;3.38;;;16.60;86.80;;;;;;4992068;28;20030;-72
2022/05/11 06:21:52;;;;;;;13.13;3.00;;;16.60;87.00;;;;;;4991550;28;20034;-73
2022/05/11 06:24:18;;;;;;;2.00;1.63;;;16.60;86.90;;;;;;4992261;28;20493;-72
2022/05/11 06:26:46;;;;;;;6.75;2.70;;;16.70;86.90;;;;;;4991716;28;20039;-72
2022/05/11 06:29:12;;;;;;;10.38;3.42;;;16.70;87.20;;;;;;4992141;28;20033;-72
2022/05/11 06:31:39;;;;;;;3.83;1.85;;;16.70;87.40;;;;;;4991896;28;20070;-72
2022/05/11 06:34:06;;;;;;;5.35;1.85;;;16.70;87.20;;;;;;4991536;28;20034;-72
2022/05/11 06:36:32;;;;;;;12.52;3.13;;;16.70;87.30;;;;;;4990814;28;20034;-73
2022/05/11 06:38:58;;;;;;;9.82;2.95;;;16.70;87.50;;;;;;4991413;28;20122;-72
2022/05/11 06:41:27;;;;;;;6.13;2.35;;;16.70;87.50;;;;;;4991257;28;20125;-73
2022/05/11 06:43:54;;;;;;;8.13;3.55;;;16.70;87.40;;;;;;4991828;28;20598;-72
2022/05/11 06:46:21;;;;;;;4.25;1.63;;;16.70;87.80;;;;;;4991786;28;20035;-73
2022/05/11 06:48:48;;;;;;;7.53;2.72;;;16.80;87.80;;;;;;4991428;28;20035;-72
2022/05/11 06:51:15;;;;;;;4.63;1.77;;;16.80;88.00;;;;;;4991813;28;20066;-72
2022/05/11 06:59:20;;;;;;;9.52;1.48;;;16.80;88.10;;;;;;4991140;28;20081;-72
2022/05/11 07:01:47;;;;;;;5.05;2.50;;;16.80;88.30;;;;;;4978959;28;20402;-72
2022/05/11 07:04:13;;;;;;;5.70;2.35;;;16.80;88.40;;;;;;4991593;28;20050;-72
2022/05/11 07:06:39;;;;;;;3.90;1.17;;;16.80;88.50;;;;;;4992044;28;20405;-73
2022/05/11 07:09:05;;;;;;;3.63;2.08;;;16.80;88.60;;;;;;4991499;28;20383;-72
2022/05/11 07:14:15;;;;;;;15.07;3.45;;;16.90;88.70;;;;;;4992275;28;20022;-73
2022/05/11 07:16:41;;;;;;;2.80;1.85;;;16.90;89.00;;;;;;4990985;28;20117;-72
2022/05/11 07:19:06;;;;;;;5.10;2.65;;;16.90;88.90;;;;;;4991899;28;20154;-72
2022/05/11 07:21:32;;;;;;;20.40;3.35;;;16.90;89.00;;;;;;5003938;28;20080;-72
2022/05/11 07:23:58;;;;;;;6.95;2.53;;;17.00;89.20;;;;;;4991009;28;20035;-73
2022/05/11 07:26:24;;;;;;;16.27;3.40;;;17.00;89.50;;;;;;4991916;28;20041;-72
2022/05/11 07:28:51;;;;;;;10.40;2.83;;;17.00;89.70;;;;;;4991828;28;20061;-72
2022/05/11 07:31:16;;;;;;;11.82;3.15;;;17.00;89.60;;;;;;4990005;28;20474;-72
2022/05/11 07:33:44;;;;;;;8.07;2.03;;;17.00;89.50;;;;;;4994565;28;20034;-73
2022/05/11 07:36:10;;;;;;;5.78;2.60;;;17.00;89.40;;;;;;4998640;28;20042;-73
2022/05/11 07:38:39;;;;;;;8.77;2.88;;;17.10;89.50;;;;;;4995309;28;20030;-72
2022/05/11 07:41:05;;;;;;;3.00;1.65;;;17.10;90.10;;;;;;4995313;28;20060;-72
2022/05/11 07:43:32;;;;;;;11.35;2.65;;;17.10;89.80;;;;;;4994755;28;20035;-73
2022/05/11 07:45:57;;;;;;;6.78;1.73;;;17.10;89.80;;;;;;5007442;28;20109;-72
2022/05/11 07:48:23;;;;;;;5.95;2.58;;;17.20;89.90;;;;;;4995547;28;20105;-73
2022/05/11 07:50:49;;;;;;;3.95;2.20;;;17.20;90.00;;;;;;4995556;28;20380;-73
2022/05/11 07:53:15;;;;;;;1.25;0.98;;;17.20;90.00;;;;;;4997376;28;20034;-72
2022/05/11 07:55:41;;;;;;;9.55;3.33;;;17.20;90.10;;;;;;4996079;28;20038;-71
2022/05/11 08:00:53;;;;;;;4.82;1.33;;;17.30;90.00;;;;;;4995821;28;20078;-71
2022/05/11 08:03:18;;;;;;;6.45;2.53;;;17.30;89.90;;;;;;4994960;28;20136;-71
2022/05/11 08:05:44;;;;;;;6.97;2.55;;;17.30;89.80;;;;;;4994682;28;20138;-71
2022/05/11 08:08:10;;;;;;;7.78;2.00;;;17.30;90.00;;;;;;4994659;28;20100;-71
2022/05/11 08:10:39;;;;;;;6.97;2.40;;;17.30;90.00;;;;;;4995027;28;20034;-72
2022/05/11 08:13:07;;;;;;;6.28;2.75;;;17.30;90.00;;;;;;4994132;28;20041;-72
2022/05/11 08:15:38;;;;;;;7.47;2.28;;;17.40;90.00;;;;;;4994593;28;20049;-72
2022/05/11 08:18:07;;;;;;;10.63;2.97;;;17.40;89.80;;;;;;4995154;28;20117;-73
2022/05/11 08:20:40;;;;;;;10.35;3.33;;;17.50;90.00;;;;;;4993993;28;20165;-72
2022/05/11 08:23:07;;;;;;;4.07;2.15;;;17.40;90.00;;;;;;4994858;28;20037;-72
2022/05/11 08:25:38;;;;;;;5.88;1.85;;;17.40;90.00;;;;;;4994102;28;20041;-72
2022/05/11 08:28:15;;;;;;;11.98;2.78;;;17.40;90.00;;;;;;4994747;28;20031;-72
2022/05/11 08:33:28;;;;;;;11.93;2.63;;;17.40;89.50;;;;;;4993868;28;20029;-72
2022/05/11 08:36:09;;;;;;;10.05;2.78;;;17.50;89.60;;;;;;4995162;28;20469;-72
2022/05/11 08:38:39;;;;;;;6.75;2.50;;;17.50;89.70;;;;;;4983706;28;20041;-72
2022/05/11 08:41:15;;;;;;;7.57;2.75;;;17.50;89.40;;;;;;4993243;28;20516;-72
2022/05/11 08:43:42;;;;;;;12.13;2.35;;;17.50;89.40;;;;;;4994236;28;20045;-72
2022/05/11 08:46:22;;;;;;;5.40;2.03;;;17.60;89.20;;;;;;4993639;28;20044;-72
2022/05/11 08:49:03;;;;;;;6.07;2.28;;;17.60;89.20;;;;;;4993368;28;20030;-72
2022/05/11 08:52:10;;;;;;;4.25;2.00;;;17.60;89.10;;;;;;4993986;28;20402;-72
2022/05/11 08:54:48;;;;;;;4.72;2.13;;;17.70;89.40;;;;;;4949197;28;20118;-72
2022/05/11 08:57:26;;;;;;;7.28;2.70;;;17.80;89.40;;;;;;4993625;28;20026;-72
2022/05/11 08:59:58;;;;;;;3.47;2.10;;;17.80;88.50;;;;;;4993661;28;20026;-72
2022/05/11 09:02:31;;;;;;;8.05;2.05;;;17.80;88.10;;;;;;4993293;28;20038;-73
2022/05/11 09:05:00;;;;;;;5.43;2.05;;;17.80;88.00;;;;;;4993352;28;20101;-72
2022/05/11 09:07:37;;;;;;;8.43;2.13;;;18.00;87.90;;;;;;4993886;28;20110;-72
2022/05/11 09:10:05;;;;;;;8.68;2.67;;;18.00;87.50;;;;;;4993270;28;20118;-72
2022/05/11 09:12:31;;;;;;;12.32;2.25;;;18.00;87.10;;;;;;4993959;28;20035;-72
2022/05/11 09:14:59;;;;;;;2.47;1.52;;;18.10;87.20;;;;;;4992678;28;20374;-72
2022/05/11 09:17:29;;;;;;;7.00;1.85;;;18.10;86.70;;;;;;4980661;28;20038;-73
2022/05/11 09:20:00;;;;;;;4.97;1.67;;;18.20;86.60;;;;;;4993464;28;20041;-73
2022/05/11 09:22:27;;;;;;;8.27;2.30;;;18.20;86.50;;;;;;4992785;28;20077;-72
2022/05/11 09:24:56;;;;;;;8.27;2.42;;;18.30;86.20;;;;;;4993454;28;20041;-72
2022/05/11 09:27:26;;;;;;;3.55;2.05;;;18.40;85.90;;;;;;4993423;28;20486;-72
2022/05/11 09:30:18;;;;;;;4.07;1.55;;;18.40;86.20;;;;;;4992819;28;20406;-72
2022/05/11 09:32:44;;;;;;;7.88;2.33;;;18.40;86.60;;;;;;4988479;28;20053;-73
2022/05/11 09:35:19;;;;;;;6.68;1.63;;;18.40;86.60;;;;;;4993245;28;20109;-72
2022/05/11 09:38:14;;;;;;;8.60;1.73;;;18.40;85.50;;;;;;4989810;28;20030;-72
2022/05/11 09:41:11;;;;;;;3.78;0.88;;;18.50;84.60;;;;;;4971794;28;20101;-72
2022/05/11 09:43:37;;;;;;;3.17;2.05;;;18.50;84.20;;;;;;4992584;28;20117;-72
2022/05/11 09:46:28;;;;;;;3.17;1.48;;;18.60;84.40;;;;;;4993023;28;20113;-73
2022/05/11 09:49:13;;;;;;;2.97;1.50;;;18.60;84.40;;;;;;4992384;28;20081;-73
2022/05/11 09:51:39;;;;;;;4.15;1.10;;;18.70;84.00;;;;;;4992255;28;20097;-73
2022/05/11 09:54:42;;;;;;;4.80;1.70;;;18.70;83.60;;;;;;4991883;28;20571;-72
2022/05/11 09:57:28;;;;;;;6.35;1.63;;;18.70;83.70;;;;;;4987234;28;20089;-78
2022/05/11 10:00:21;;;;;;;3.85;1.20;;;18.70;83.10;;;;;;4986894;28;20421;-77
2022/05/11 10:02:51;;;;;;;2.75;1.30;;;18.80;82.50;;;;;;4995716;28;20667;-77
2022/05/11 10:05:36;;;;;;;4.43;1.90;;;18.80;82.40;;;;;;4990040;28;20030;-73
2022/05/11 10:08:05;;;;;;;5.05;1.42;;;18.80;82.40;;;;;;4991621;28;20064;-72
2022/05/11 10:10:42;;;;;;;3.05;1.45;;;18.80;82.40;;;;;;4991676;28;20355;-72
2022/05/11 10:13:28;;;;;;;3.72;1.63;;;18.90;82.70;;;;;;4991362;28;20033;-70
2022/05/11 10:21:56;;;;;;;2.28;1.30;;;19.00;81.90;;;;;;4992276;28;20556;-69
2022/05/11 10:25:00;;;;;;;5.60;1.48;;;19.10;82.00;;;;;;4992706;28;20030;-69
2022/05/11 10:28:05;;;;;;;8.13;1.83;;;19.10;81.70;;;;;;4990689;28;20066;-68
2022/05/11 10:30:49;;;;;;;4.03;1.50;;;19.20;81.40;;;;;;4992108;28;20041;-70
2022/05/11 10:33:42;;;;;;;3.22;1.58;;;19.30;80.90;;;;;;4992791;28;20041;-70
2022/05/11 10:36:08;;;;;;;1.17;1.02;;;19.30;80.80;;;;;;4991598;28;20037;-71
2022/05/11 10:39:04;;;;;;;1.00;0.77;;;19.30;80.60;;;;;;4990066;28;20026;-70
2022/05/11 10:42:02;;;;;;;3.00;1.33;;;19.30;79.80;;;;;;4989483;28;20561;-70
2022/05/11 10:44:35;;;;;;;1.17;0.88;;;19.30;79.20;;;;;;4989844;28;20023;-70
2022/05/11 10:47:19;;;;;;;8.07;1.88;;;19.30;79.30;;;;;;4988963;28;20030;-70
2022/05/11 10:50:07;;;;;;;8.63;2.17;;;19.40;79.10;;;;;;4990926;28;20042;-73
2022/05/11 10:53:03;;;;;;;3.40;1.20;;;19.40;79.10;;;;;;4991532;28;20027;-72
2022/05/11 10:56:01;;;;;;;1.20;0.68;;;19.40;79.50;;;;;;4991018;28;20117;-73
2022/05/11 10:58:27;;;;;;;1.17;0.85;;;19.60;79.40;;;;;;4983224;28;20117;-72
2022/05/11 11:01:09;;;;;;;5.25;1.55;;;19.60;78.70;;;;;;4990780;28;20125;-72
2022/05/11 11:03:56;;;;;;;7.47;1.92;;;19.60;78.70;;;;;;4991626;28;20121;-72
2022/05/11 11:09:31;;;;;;;3.75;1.65;;;19.70;78.00;;;;;;4986005;28;20026;-67
2022/05/11 11:12:05;;;;;;;3.60;1.38;;;19.70;77.90;;;;;;4991547;28;20729;-67
2022/05/11 11:14:41;;;;;;;11.63;1.35;;;19.80;77.60;;;;;;4989851;28;20045;-67
2022/05/11 11:17:11;;;;;;;7.32;1.95;;;19.80;77.70;;;;;;4991523;28;20030;-66
2022/05/11 11:19:39;;;;;;;9.27;1.80;;;19.80;76.70;;;;;;4991413;28;20034;-66
2022/05/11 11:22:06;;;;;;;6.03;1.73;;;19.80;76.40;;;;;;4978393;28;20046;-66
2022/05/11 11:24:33;;;;;;;5.63;1.48;;;19.80;76.70;;;;;;4988072;28;20026;-66
2022/05/11 11:27:05;;;;;;;3.45;1.25;;;19.80;76.30;;;;;;4987657;28;20022;-67
2022/05/11 11:29:31;;;;;;;4.63;1.33;;;19.80;76.10;;;;;;4988504;28;20030;-67
2022/05/11 11:32:00;;;;;;;2.38;1.30;;;19.80;76.10;;;;;;4990180;28;20129;-75
2022/05/11 11:34:34;;;;;;;5.95;1.60;;;19.90;76.80;;;;;;4990871;28;20441;-74
2022/05/11 11:37:20;;;;;;;4.93;1.70;;;20.00;76.80;;;;;;4978074;28;20030;-74
2022/05/11 11:39:52;;;;;;;3.80;1.60;;;20.10;76.90;;;;;;4988896;28;20031;-74
2022/05/11 11:42:41;;;;;;;6.05;1.60;;;20.10;76.80;;;;;;4990198;28;20145;-75
2022/05/11 11:45:25;;;;;;;7.30;1.67;;;20.20;76.70;;;;;;4989913;28;20030;-73
2022/05/11 11:48:15;;;;;;;3.70;1.25;;;20.30;76.10;;;;;;4989250;28;20037;-70
2022/05/11 11:50:58;;;;;;;6.82;2.15;;;20.20;76.00;;;;;;4987889;28;20050;-74
2022/05/11 11:53:40;;;;;;;8.73;1.95;;;20.20;76.00;;;;;;4988509;28;20847;-75
2022/05/11 11:56:24;;;;;;;3.05;1.52;;;20.30;76.40;;;;;;4988067;28;20509;-75
2022/05/11 11:59:10;;;;;;;7.75;1.92;;;20.30;75.90;;;;;;4987335;28;20077;-75
2022/05/11 12:01:46;;;;;;;4.43;1.50;;;20.30;75.80;;;;;;4986543;28;20571;-75
2022/05/11 12:04:37;;;;;;;11.10;1.80;;;20.30;76.00;;;;;;4984908;28;20073;-75
2022/05/11 12:15:35;;;;;;;4.18;1.40;;;20.40;74.30;;;;;;4987644;28;20691;-72
2022/05/11 12:18:26;;;;;;;9.30;2.70;;;20.40;74.90;;;;;;4988792;28;20117;-72
2022/05/11 12:20:54;;;;;;;9.25;1.58;;;20.40;75.10;;;;;;4973940;28;20054;-72
2022/05/11 12:23:26;;;;;;;4.07;1.55;;;20.40;75.10;;;;;;4992991;28;20053;-72
2022/05/11 12:25:56;;;;;;;2.27;1.53;;;20.50;74.60;;;;;;4994062;28;20030;-71
2022/05/11 12:28:35;;;;;;;3.08;1.40;;;20.50;74.40;;;;;;4994681;28;20042;-72
2022/05/11 12:31:02;;;;;;;4.47;1.92;;;20.60;74.90;;;;;;4994451;28;20030;-72
2022/05/11 12:33:32;;;;;;;7.25;2.28;;;20.60;74.50;;;;;;4993780;28;20382;-72
2022/05/11 12:35:59;;;;;;;7.30;2.15;;;20.60;74.50;;;;;;4993140;28;20037;-72
2022/05/11 12:38:33;;;;;;;9.13;1.83;;;20.60;74.20;;;;;;4994582;28;20034;-72
2022/05/11 12:41:08;;;;;;;2.50;1.20;;;20.60;74.10;;;;;;4993615;28;20061;-72
2022/05/11 12:43:37;;;;;;;6.80;1.83;;;20.60;73.90;;;;;;4993813;28;20038;-72
2022/05/11 12:46:16;;;;;;;3.63;1.08;;;20.60;73.30;;;;;;4993424;28;20034;-72
2022/05/11 12:48:51;;;;;;;3.83;1.40;;;20.60;73.10;;;;;;4993957;28;20470;-72
2022/05/11 12:51:23;;;;;;;2.35;0.95;;;20.60;73.00;;;;;;4994093;28;20026;-72
2022/05/11 12:53:52;;;;;;;4.30;1.38;;;20.60;72.00;;;;;;4992746;28;20030;-70
2022/05/11 12:56:22;;;;;;;9.25;2.40;;;20.60;71.40;;;;;;4992646;28;20034;-69
2022/05/11 12:58:52;;;;;;;4.18;1.10;;;20.60;71.90;;;;;;4992962;28;20030;-70
2022/05/11 13:01:21;;;;;;;7.20;1.58;;;20.60;72.40;;;;;;4992223;28;20038;-70
2022/05/11 13:03:50;;;;;;;4.03;1.23;;;20.60;72.80;;;;;;4991255;28;20642;-70
2022/05/11 13:06:18;;;;;;;2.60;0.82;;;20.60;72.00;;;;;;4990143;28;20503;-70
2022/05/11 13:08:48;;;;;;;0.35;0.35;;;20.60;71.90;;;;;;4990004;28;20389;-70
2022/05/11 13:11:17;;;;;;;4.53;1.23;;;20.70;71.80;;;;;;4989893;28;20046;-70
2022/05/11 13:13:45;;;;;;;3.00;1.38;;;20.70;72.00;;;;;;4990977;28;20046;-71
2022/05/11 13:16:17;;;;;;;10.43;1.73;;;20.70;72.00;;;;;;4989779;28;20458;-70
2022/05/11 13:18:44;;;;;;;6.55;1.70;;;20.80;71.70;;;;;;4988787;28;20474;-70
2022/05/11 13:21:10;;;;;;;4.88;1.98;;;20.80;71.40;;;;;;4988635;28;20169;-74
2022/05/11 13:23:50;;;;;;;3.65;1.20;;;20.80;71.60;;;;;;4988679;28;20109;-70
2022/05/11 13:26:43;;;;;;;4.05;1.30;;;20.80;70.00;;;;;;4988203;28;20045;-70
2022/05/11 13:29:16;;;;;;;2.70;1.30;;;20.80;69.00;;;;;;4987706;28;20034;-70
2022/05/11 13:31:43;;;;;;;2.10;1.20;;;20.70;68.70;;;;;;4987689;28;20033;-69
2022/05/11 13:34:48;;;;;;;2.45;1.00;;;20.80;69.30;;;;;;4987636;28;20114;-70
2022/05/11 13:37:24;;;;;;;3.67;1.60;;;21.00;68.80;;;;;;4986710;28;20046;-70
2022/05/11 13:39:51;;;;;;;5.95;1.42;;;21.00;67.00;;;;;;4987394;28;20117;-70
2022/05/11 13:42:25;;;;;;;7.43;1.83;;;21.00;66.70;;;;;;4988048;28;20184;-70
2022/05/11 13:45:04;;;;;;;2.35;0.75;;;21.00;67.50;;;;;;4986234;28;20049;-70